sensor_id;sensor_type;location;lat;lon;timestamp;temperature;humidity
7014;DHT22;3547;50.774;12.918;2022-07-03T01:16:05;16.60;99.90
7014;DHT22;3547;50.774;12.918;2022-07-03T01:18:53;16.60;99.90
7014;DHT22;3547;50.774;12.918;2022-07-03T02:20:19;16.70;99.90
7014;DHT22;3547;50.774;12.918;2022-07-03T02:23:03;16.70;99.90
7014;DHT22;3547;50.774;12.918;2022-07-03T02:25:42;16.70;99.90
7014;DHT22;3547;50.774;12.918;2022-07-03T02:31:24;16.70;99.90
7014;DHT22;3547;50.774;12.918;2022-07-03T02:33:55;16.70;99.90
7014;DHT22;3547;50.774;12.918;2022-07-03T07:23:10;21.30;99.90
7014;DHT22;3547;50.774;12.918;2022-07-03T07:32:38;21.50;99.90
7014;DHT22;3547;50.774;12.918;2022-07-03T07:38:34;21.70;99.90
7014;DHT22;3547;50.774;12.918;2022-07-03T07:43:39;21.80;99.90
7014;DHT22;3547;50.774;12.918;2022-07-03T07:46:05;21.90;99.90
7014;DHT22;3547;50.774;12.918;2022-07-03T08:04:16;22.70;99.90
7014;DHT22;3547;50.774;12.918;2022-07-03T10:31:12;25.60;99.90
7014;DHT22;3547;50.774;12.918;2022-07-03T10:33:40;25.80;99.90
7014;DHT22;3547;50.774;12.918;2022-07-03T10:36:10;25.90;99.90
7014;DHT22;3547;50.774;12.918;2022-07-03T10:41:34;26.10;99.90
7014;DHT22;3547;50.774;12.918;2022-07-03T12:35:43;32.30;99.90
7014;DHT22;3547;50.774;12.918;2022-07-03T13:33:58;32.20;99.90
7014;DHT22;3547;50.774;12.918;2022-07-03T13:36:26;32.00;99.90
7014;DHT22;3547;50.774;12.918;2022-07-03T13:38:58;31.50;99.90
7014;DHT22;3547;50.774;12.918;2022-07-03T13:49:22;32.00;99.90
7014;DHT22;3547;50.774;12.918;2022-07-03T14:02:32;32.00;99.90
7014;DHT22;3547;50.774;12.918;2022-07-03T14:04:58;31.70;99.90
7014;DHT22;3547;50.774;12.918;2022-07-03T14:07:30;32.00;99.90
7014;DHT22;3547;50.774;12.918;2022-07-03T14:09:57;32.50;99.90
7014;DHT22;3547;50.774;12.918;2022-07-03T14:12:27;32.20;99.90
7014;DHT22;3547;50.774;12.918;2022-07-03T14:14:55;33.40;99.90
7014;DHT22;3547;50.774;12.918;2022-07-03T14:17:24;33.80;99.90
7014;DHT22;3547;50.774;12.918;2022-07-03T14:19:56;33.40;99.90
7014;DHT22;3547;50.774;12.918;2022-07-03T14:22:23;33.50;99.90
7014;DHT22;3547;50.774;12.918;2022-07-03T14:24:49;33.60;99.90
7014;DHT22;3547;50.774;12.918;2022-07-03T14:32:56;34.00;99.90
7014;DHT22;3547;50.774;12.918;2022-07-03T14:41:59;35.30;99.90
7014;DHT22;3547;50.774;12.918;2022-07-03T14:44:28;34.10;99.90
7014;DHT22;3547;50.774;12.918;2022-07-03T14:54:43;37.80;99.90
7014;DHT22;3547;50.774;12.918;2022-07-03T15:00:13;39.70;99.90
7014;DHT22;3547;50.774;12.918;2022-07-03T15:02:44;38.80;99.90
7014;DHT22;3547;50.774;12.918;2022-07-03T15:05:13;37.50;99.90
7014;DHT22;3547;50.774;12.918;2022-07-03T15:07:47;36.10;99.90
7014;DHT22;3547;50.774;12.918;2022-07-03T15:10:18;37.80;99.90
7014;DHT22;3547;50.774;12.918;2022-07-03T15:12:50;37.70;99.90
7014;DHT22;3547;50.774;12.918;2022-07-03T15:17:56;37.50;99.90
7014;DHT22;3547;50.774;12.918;2022-07-03T15:20:32;37.40;99.90
7014;DHT22;3547;50.774;12.918;2022-07-03T15:23:04;37.20;99.90
7014;DHT22;3547;50.774;12.918;2022-07-03T15:25:36;36.80;99.90
7014;DHT22;3547;50.774;12.918;2022-07-03T15:28:08;36.90;99.90
7014;DHT22;3547;50.774;12.918;2022-07-03T15:30:36;37.00;99.90
7014;DHT22;3547;50.774;12.918;2022-07-03T15:33:04;38.00;99.90
7014;DHT22;3547;50.774;12.918;2022-07-03T15:35:31;37.10;99.90
7014;DHT22;3547;50.774;12.918;2022-07-03T15:38:10;36.90;99.90
7014;DHT22;3547;50.774;12.918;2022-07-03T15:46:36;37.60;99.90
7014;DHT22;3547;50.774;12.918;2022-07-03T15:49:28;38.10;99.90
7014;DHT22;3547;50.774;12.918;2022-07-03T15:52:16;37.10;99.90
7014;DHT22;3547;50.774;12.918;2022-07-03T15:55:06;36.60;99.90
7014;DHT22;3547;50.774;12.918;2022-07-03T15:57:42;35.60;99.90
7014;DHT22;3547;50.774;12.918;2022-07-03T16:00:18;35.60;99.90
7014;DHT22;3547;50.774;12.918;2022-07-03T16:05:55;36.00;99.90
7014;DHT22;3547;50.774;12.918;2022-07-03T16:08:24;36.00;99.90
7014;DHT22;3547;50.774;12.918;2022-07-03T16:10:51;35.80;99.90
7014;DHT22;3547;50.774;12.918;2022-07-03T16:13:19;35.40;99.90
7014;DHT22;3547;50.774;12.918;2022-07-03T16:15:51;35.80;99.90
7014;DHT22;3547;50.774;12.918;2022-07-03T16:18:23;36.90;99.90
7014;DHT22;3547;50.774;12.918;2022-07-03T16:20:51;38.10;99.90
7014;DHT22;3547;50.774;12.918;2022-07-03T16:23:21;39.40;99.90
7014;DHT22;3547;50.774;12.918;2022-07-03T16:25:53;39.20;99.90
7014;DHT22;3547;50.774;12.918;2022-07-03T16:28:23;39.90;99.90
7014;DHT22;3547;50.774;12.918;2022-07-03T16:30:53;40.00;99.90
7014;DHT22;3547;50.774;12.918;2022-07-03T16:33:26;40.90;99.90
7014;DHT22;3547;50.774;12.918;2022-07-03T16:36:02;40.90;99.90
7014;DHT22;3547;50.774;12.918;2022-07-03T16:45:08;40.10;99.90
7014;DHT22;3547;50.774;12.918;2022-07-03T16:47:39;40.80;99.90
7014;DHT22;3547;50.774;12.918;2022-07-03T16:50:14;41.60;99.90
7014;DHT22;3547;50.774;12.918;2022-07-03T16:52:45;41.50;99.90
7014;DHT22;3547;50.774;12.918;2022-07-03T16:55:23;42.00;99.90
7014;DHT22;3547;50.774;12.918;2022-07-03T16:58:09;42.40;99.90
7014;DHT22;3547;50.774;12.918;2022-07-03T17:00:43;42.60;99.90
7014;DHT22;3547;50.774;12.918;2022-07-03T17:03:17;43.10;99.90
7014;DHT22;3547;50.774;12.918;2022-07-03T17:09:25;43.50;99.90
7014;DHT22;3547;50.774;12.918;2022-07-03T17:23:16;41.70;99.90
7014;DHT22;3547;50.774;12.918;2022-07-03T17:28:23;41.60;99.90
7014;DHT22;3547;50.774;12.918;2022-07-03T17:31:03;42.10;99.90
7014;DHT22;3547;50.774;12.918;2022-07-03T17:33:35;41.50;99.90
7014;DHT22;3547;50.774;12.918;2022-07-03T17:42:14;39.20;99.90
7014;DHT22;3547;50.774;12.918;2022-07-03T17:44:46;37.30;99.90
7014;DHT22;3547;50.774;12.918;2022-07-03T17:49:54;35.50;99.90
7014;DHT22;3547;50.774;12.918;2022-07-03T20:14:45;22.80;99.90
7014;DHT22;3547;50.774;12.918;2022-07-03T20:17:13;22.70;99.90
7014;DHT22;3547;50.774;12.918;2022-07-03T20:19:41;22.60;99.90
7014;DHT22;3547;50.774;12.918;2022-07-03T20:22:11;22.50;99.90
7014;DHT22;3547;50.774;12.918;2022-07-03T20:24:40;22.40;99.90
7014;DHT22;3547;50.774;12.918;2022-07-03T20:27:16;22.40;99.90
7014;DHT22;3547;50.774;12.918;2022-07-03T20:29:48;22.20;99.90
7014;DHT22;3547;50.774;12.918;2022-07-03T20:32:22;22.00;99.90
7014;DHT22;3547;50.774;12.918;2022-07-03T20:38:17;21.80;99.90
7014;DHT22;3547;50.774;12.918;2022-07-03T20:40:57;21.70;99.90
7014;DHT22;3547;50.774;12.918;2022-07-03T20:43:43;21.70;99.90
7014;DHT22;3547;50.774;12.918;2022-07-03T20:46:13;21.70;99.90
7014;DHT22;3547;50.774;12.918;2022-07-03T20:48:50;21.70;99.90
7014;DHT22;3547;50.774;12.918;2022-07-03T20:51:37;21.70;99.90
7014;DHT22;3547;50.774;12.918;2022-07-03T20:54:06;21.60;99.90
7014;DHT22;3547;50.774;12.918;2022-07-03T20:56:37;21.40;99.90
7014;DHT22;3547;50.774;12.918;2022-07-03T20:59:03;21.40;99.90
7014;DHT22;3547;50.774;12.918;2022-07-03T21:01:39;21.40;99.90
7014;DHT22;3547;50.774;12.918;2022-07-03T21:04:05;21.40;99.90
7014;DHT22;3547;50.774;12.918;2022-07-03T21:06:38;21.30;99.90
7014;DHT22;3547;50.774;12.918;2022-07-03T21:09:07;21.30;99.90
7014;DHT22;3547;50.774;12.918;2022-07-03T21:11:34;21.30;99.90
7014;DHT22;3547;50.774;12.918;2022-07-03T21:16:32;21.20;99.90
7014;DHT22;3547;50.774;12.918;2022-07-03T21:19:00;21.10;99.90
7014;DHT22;3547;50.774;12.918;2022-07-03T21:21:28;21.10;99.90
7014;DHT22;3547;50.774;12.918;2022-07-03T21:23:55;21.00;99.90
7014;DHT22;3547;50.774;12.918;2022-07-03T21:26:22;20.80;99.90
7014;DHT22;3547;50.774;12.918;2022-07-03T21:28:48;20.80;99.90
7014;DHT22;3547;50.774;12.918;2022-07-03T21:31:15;20.80;99.90
7014;DHT22;3547;50.774;12.918;2022-07-03T21:33:41;20.80;99.90
7014;DHT22;3547;50.774;12.918;2022-07-03T21:36:07;20.80;99.90
7014;DHT22;3547;50.774;12.918;2022-07-03T21:38:34;20.70;99.90
7014;DHT22;3547;50.774;12.918;2022-07-03T21:41:00;20.60;99.90
7014;DHT22;3547;50.774;12.918;2022-07-03T21:43:27;20.50;99.90
7014;DHT22;3547;50.774;12.918;2022-07-03T21:45:53;20.50;99.90
7014;DHT22;3547;50.774;12.918;2022-07-03T21:48:19;20.40;99.90
7014;DHT22;3547;50.774;12.918;2022-07-03T21:50:46;20.40;99.90
7014;DHT22;3547;50.774;12.918;2022-07-03T21:53:12;20.30;99.90
7014;DHT22;3547;50.774;12.918;2022-07-03T21:55:38;20.30;99.90
7014;DHT22;3547;50.774;12.918;2022-07-03T21:58:05;20.30;99.90
7014;DHT22;3547;50.774;12.918;2022-07-03T22:00:32;20.30;99.90
7014;DHT22;3547;50.774;12.918;2022-07-03T22:02:58;20.10;99.90
7014;DHT22;3547;50.774;12.918;2022-07-03T22:05:25;20.00;99.90
7014;DHT22;3547;50.774;12.918;2022-07-03T22:07:51;20.00;99.90
7014;DHT22;3547;50.774;12.918;2022-07-03T22:10:17;20.00;99.90
7014;DHT22;3547;50.774;12.918;2022-07-03T22:12:44;19.90;99.90
7014;DHT22;3547;50.774;12.918;2022-07-03T22:15:12;19.80;99.90
7014;DHT22;3547;50.774;12.918;2022-07-03T22:17:42;19.70;99.90
7014;DHT22;3547;50.774;12.918;2022-07-03T22:20:10;19.60;99.90
7014;DHT22;3547;50.774;12.918;2022-07-03T22:22:36;19.40;99.90
7014;DHT22;3547;50.774;12.918;2022-07-03T22:25:04;19.30;99.90
7014;DHT22;3547;50.774;12.918;2022-07-03T22:27:31;19.00;99.90
7014;DHT22;3547;50.774;12.918;2022-07-03T22:29:58;18.90;99.90
7014;DHT22;3547;50.774;12.918;2022-07-03T22:32:24;18.80;99.90
7014;DHT22;3547;50.774;12.918;2022-07-03T22:34:50;18.80;99.90
7014;DHT22;3547;50.774;12.918;2022-07-03T22:40:39;18.60;99.90
7014;DHT22;3547;50.774;12.918;2022-07-03T22:43:06;18.50;99.90
7014;DHT22;3547;50.774;12.918;2022-07-03T22:45:32;18.50;99.90
7014;DHT22;3547;50.774;12.918;2022-07-03T22:47:59;18.40;99.90
7014;DHT22;3547;50.774;12.918;2022-07-03T22:50:25;18.40;99.90
7014;DHT22;3547;50.774;12.918;2022-07-03T22:52:52;18.40;99.90
7014;DHT22;3547;50.774;12.918;2022-07-03T22:55:18;18.40;99.90
7014;DHT22;3547;50.774;12.918;2022-07-03T22:57:44;18.40;99.90
7014;DHT22;3547;50.774;12.918;2022-07-03T23:00:11;18.40;99.90
7014;DHT22;3547;50.774;12.918;2022-07-03T23:02:37;18.40;99.90
7014;DHT22;3547;50.774;12.918;2022-07-03T23:05:04;18.30;99.90
7014;DHT22;3547;50.774;12.918;2022-07-03T23:07:30;18.40;99.90
7014;DHT22;3547;50.774;12.918;2022-07-03T23:09:56;18.40;99.90
7014;DHT22;3547;50.774;12.918;2022-07-03T23:12:23;18.40;99.90
7014;DHT22;3547;50.774;12.918;2022-07-03T23:14:49;18.40;99.90
7014;DHT22;3547;50.774;12.918;2022-07-03T23:17:15;18.50;99.90
7014;DHT22;3547;50.774;12.918;2022-07-03T23:19:42;18.50;99.90
7014;DHT22;3547;50.774;12.918;2022-07-03T23:22:08;18.60;99.90
7014;DHT22;3547;50.774;12.918;2022-07-03T23:24:35;18.60;99.90
7014;DHT22;3547;50.774;12.918;2022-07-03T23:27:01;18.60;99.90
7014;DHT22;3547;50.774;12.918;2022-07-03T23:29:28;18.60;99.90
7014;DHT22;3547;50.774;12.918;2022-07-03T23:31:54;18.60;99.90
7014;DHT22;3547;50.774;12.918;2022-07-03T23:34:21;18.50;99.90
7014;DHT22;3547;50.774;12.918;2022-07-03T23:36:48;18.30;99.90
7014;DHT22;3547;50.774;12.918;2022-07-03T23:39:14;18.30;99.90
7014;DHT22;3547;50.774;12.918;2022-07-03T23:41:40;18.20;99.90
7014;DHT22;3547;50.774;12.918;2022-07-03T23:44:07;18.20;99.90
7014;DHT22;3547;50.774;12.918;2022-07-03T23:46:33;18.20;99.90
7014;DHT22;3547;50.774;12.918;2022-07-03T23:48:59;18.20;99.90
7014;DHT22;3547;50.774;12.918;2022-07-03T23:51:44;18.30;99.90
7014;DHT22;3547;50.774;12.918;2022-07-03T23:54:10;18.30;99.90
7014;DHT22;3547;50.774;12.918;2022-07-03T23:56:37;18.30;99.90
7014;DHT22;3547;50.774;12.918;2022-07-03T23:59:03;18.30;99.90
